Elko New Market, MN (55054)

3:44 PM CST on February 11, 2016 (GMT -0600)
Louis St. | | Change Station
CLOSE
Current Station
Personal Weather Station
Location: Elko New Market, MN
Elevation: 1129 ft
Nearby Weather Stations

Elev 1129 ft 44.57 °N, 93.36 °W | Updated 1 second ago

Overcast
Overcast
16.5 °F
Feels Like 11 °F
N
3.6
Wind Variable Wind from SSW
Gusts 4.9 mph

Today
High -- | Low -- °F
--% Chance of Precip.
Yesterday
High -- | Low -- °F
Precip. -- in
Pressure 30.23 in
Visibility 10.0 miles
Clouds Overcast 6000 ft
Windchill 11 °F
Dew Point -6 °F
Humidity 36%
Rainfall 0.00 in
Snow Depth Not available.
7:19 AM 5:35 PM
Waxing Crescent, 14% visible
METAR KLVN 112115Z AUTO 25004KT 10SM OVC060 M09/M17 A3023 RMK AO2
Pressure 30.23 in
Visibility 10.0 miles
Clouds Overcast 6000 ft
Windchill 11 °F
Dew Point -6 °F
Humidity 36%
Rainfall 0.00 in
Snow Depth Not available.
7:19 AM 5:35 PM
Waxing Crescent, 14% visible
METAR KLVN 112115Z AUTO 25004KT 10SM OVC060 M09/M17 A3023 RMK AO2

10-Day Weather Forecast

Almanac

Astronomy

Feb. 11, 2016 Rise Set
Actual Time
Civil Twilight
Nautical Twilight
Astronomical Twilight
Moon
Length of Visible Light
Length of Day
Tomorrow will be .
, % of the Moon is Illuminated

Today's Extremes

State Highs State Lows

Community

WunderPhotos

Upload Photos

1,892,165 photos uploaded!

WunderBlog® & News

Nearby

Air Quality

  Air Quality AQ Index Pollutant
Not available.

Snow Depth

Station Depth Elevation

Earthquake Activity

City Distance Mag. Time & Date
Minimum magnitude displayed is 2.5.

Coastal Water Temperatures

Place Temperature

Stations

Nearby Weather Stations

Station Location Temp. Windchill Dew Point Humidity Wind Precip. Elev Updated Type
                   

Watches & Warnings

There are currently no watches in effect.